Aviation Digital Data Service (ADDS)

Output produced by METARs form (0142 UTC 01 August 2014)
found at http://aviationweather.gov/adds/metars/
 
KIAH 312325Z 0100/0206 VRB05KT P6SM VCTS SCT050CB SCT120 BKN250 
     TEMPO 0100/0104 VRB15G28KT 4SM TSRA BKN035CB 
     FM011000 24003KT P6SM VCSH BKN050 
     FM011400 28005KT P6SM BKN040 
     FM012100 32005KT P6SM VCSH BKN040 
     FM020200 35005KT P6SM BKN035